sensor_id;sensor_type;location;lat;lon;timestamp;P1;durP1;ratioP1;P2;durP2;ratioP2
66957;SDS011;53892;43.258;-2.932;2022-12-10T00:00:41;3.30;;;1.40;;
66957;SDS011;53892;43.258;-2.932;2022-12-10T00:03:07;9.75;;;1.60;;
66957;SDS011;53892;43.258;-2.932;2022-12-10T00:05:34;9.40;;;1.83;;
66957;SDS011;53892;43.258;-2.932;2022-12-10T00:08:00;10.60;;;2.13;;
66957;SDS011;53892;43.258;-2.932;2022-12-10T00:10:26;3.83;;;1.23;;
66957;SDS011;53892;43.258;-2.932;2022-12-10T00:12:52;4.13;;;1.33;;
66957;SDS011;53892;43.258;-2.932;2022-12-10T00:15:19;10.32;;;1.83;;
66957;SDS011;53892;43.258;-2.932;2022-12-10T00:17:45;4.43;;;1.55;;
66957;SDS011;53892;43.258;-2.932;2022-12-10T00:20:11;6.65;;;1.73;;
66957;SDS011;53892;43.258;-2.932;2022-12-10T00:22:37;7.07;;;1.23;;
66957;SDS011;53892;43.258;-2.932;2022-12-10T00:25:03;6.38;;;1.48;;
66957;SDS011;53892;43.258;-2.932;2022-12-10T00:27:30;6.25;;;1.67;;
66957;SDS011;53892;43.258;-2.932;2022-12-10T00:29:56;5.70;;;1.77;;
66957;SDS011;53892;43.258;-2.932;2022-12-10T00:32:23;7.57;;;2.00;;
66957;SDS011;53892;43.258;-2.932;2022-12-10T00:34:49;6.00;;;1.30;;
66957;SDS011;53892;43.258;-2.932;2022-12-10T00:37:15;9.68;;;2.00;;
66957;SDS011;53892;43.258;-2.932;2022-12-10T00:39:41;6.95;;;1.52;;
66957;SDS011;53892;43.258;-2.932;2022-12-10T00:42:07;6.35;;;1.52;;
66957;SDS011;53892;43.258;-2.932;2022-12-10T00:44:33;6.85;;;2.15;;
66957;SDS011;53892;43.258;-2.932;2022-12-10T00:46:59;7.32;;;1.40;;
66957;SDS011;53892;43.258;-2.932;2022-12-10T00:49:26;5.60;;;1.42;;
66957;SDS011;53892;43.258;-2.932;2022-12-10T00:51:52;4.47;;;0.98;;
66957;SDS011;53892;43.258;-2.932;2022-12-10T00:54:18;4.03;;;1.23;;
66957;SDS011;53892;43.258;-2.932;2022-12-10T00:56:44;7.28;;;1.45;;
66957;SDS011;53892;43.258;-2.932;2022-12-10T00:59:10;3.40;;;1.38;;
66957;SDS011;53892;43.258;-2.932;2022-12-10T01:01:37;3.53;;;1.20;;
66957;SDS011;53892;43.258;-2.932;2022-12-10T01:04:08;10.95;;;1.27;;
66957;SDS011;53892;43.258;-2.932;2022-12-10T01:06:36;7.57;;;0.98;;
66957;SDS011;53892;43.258;-2.932;2022-12-10T01:09:04;5.03;;;1.33;;
66957;SDS011;53892;43.258;-2.932;2022-12-10T01:11:31;3.97;;;1.52;;
66957;SDS011;53892;43.258;-2.932;2022-12-10T01:13:58;6.25;;;1.35;;
66957;SDS011;53892;43.258;-2.932;2022-12-10T01:16:24;6.75;;;1.48;;
66957;SDS011;53892;43.258;-2.932;2022-12-10T01:18:54;10.45;;;1.70;;
66957;SDS011;53892;43.258;-2.932;2022-12-10T01:21:21;8.07;;;1.52;;
66957;SDS011;53892;43.258;-2.932;2022-12-10T01:23:48;6.22;;;1.50;;
66957;SDS011;53892;43.258;-2.932;2022-12-10T01:26:19;3.38;;;0.93;;
66957;SDS011;53892;43.258;-2.932;2022-12-10T01:28:45;6.15;;;1.13;;
66957;SDS011;53892;43.258;-2.932;2022-12-10T01:31:13;3.67;;;1.20;;
66957;SDS011;53892;43.258;-2.932;2022-12-10T01:33:39;3.67;;;1.05;;
66957;SDS011;53892;43.258;-2.932;2022-12-10T01:36:07;2.63;;;0.80;;
66957;SDS011;53892;43.258;-2.932;2022-12-10T01:38:34;4.40;;;1.35;;
66957;SDS011;53892;43.258;-2.932;2022-12-10T01:41:00;5.18;;;0.82;;
66957;SDS011;53892;43.258;-2.932;2022-12-10T01:43:27;4.15;;;1.00;;
66957;SDS011;53892;43.258;-2.932;2022-12-10T01:45:53;4.10;;;1.00;;
66957;SDS011;53892;43.258;-2.932;2022-12-10T01:48:20;5.13;;;1.40;;
66957;SDS011;53892;43.258;-2.932;2022-12-10T01:50:46;3.90;;;0.93;;
66957;SDS011;53892;43.258;-2.932;2022-12-10T01:53:12;5.47;;;1.20;;
66957;SDS011;53892;43.258;-2.932;2022-12-10T01:55:48;5.30;;;1.17;;
66957;SDS011;53892;43.258;-2.932;2022-12-10T01:58:15;6.50;;;0.82;;
66957;SDS011;53892;43.258;-2.932;2022-12-10T02:00:45;2.90;;;0.70;;
66957;SDS011;53892;43.258;-2.932;2022-12-10T02:03:13;4.00;;;0.70;;
66957;SDS011;53892;43.258;-2.932;2022-12-10T02:05:42;2.75;;;0.98;;
66957;SDS011;53892;43.258;-2.932;2022-12-10T02:08:23;6.78;;;0.93;;
66957;SDS011;53892;43.258;-2.932;2022-12-10T02:15:58;5.00;;;0.70;;
66957;SDS011;53892;43.258;-2.932;2022-12-10T02:18:35;5.68;;;0.55;;
66957;SDS011;53892;43.258;-2.932;2022-12-10T02:21:06;2.53;;;0.68;;
66957;SDS011;53892;43.258;-2.932;2022-12-10T02:23:38;4.85;;;0.82;;
66957;SDS011;53892;43.258;-2.932;2022-12-10T02:28:52;3.38;;;0.82;;
66957;SDS011;53892;43.258;-2.932;2022-12-10T02:31:23;8.02;;;0.65;;
66957;SDS011;53892;43.258;-2.932;2022-12-10T02:33:51;4.57;;;0.50;;
66957;SDS011;53892;43.258;-2.932;2022-12-10T02:36:19;5.72;;;0.60;;
66957;SDS011;53892;43.258;-2.932;2022-12-10T02:38:46;2.42;;;0.50;;
66957;SDS011;53892;43.258;-2.932;2022-12-10T02:41:32;3.92;;;0.52;;
66957;SDS011;53892;43.258;-2.932;2022-12-10T02:44:00;5.00;;;0.50;;
66957;SDS011;53892;43.258;-2.932;2022-12-10T02:46:27;7.03;;;0.52;;
66957;SDS011;53892;43.258;-2.932;2022-12-10T02:48:55;10.07;;;0.80;;
66957;SDS011;53892;43.258;-2.932;2022-12-10T02:51:21;4.78;;;0.75;;
66957;SDS011;53892;43.258;-2.932;2022-12-10T02:53:47;3.17;;;0.50;;
66957;SDS011;53892;43.258;-2.932;2022-12-10T03:01:25;6.63;;;0.50;;
66957;SDS011;53892;43.258;-2.932;2022-12-10T03:03:59;4.07;;;0.40;;
66957;SDS011;53892;43.258;-2.932;2022-12-10T03:06:33;4.82;;;0.35;;
66957;SDS011;53892;43.258;-2.932;2022-12-10T03:09:06;2.05;;;1.00;;
66957;SDS011;53892;43.258;-2.932;2022-12-10T03:11:33;2.90;;;0.40;;
66957;SDS011;53892;43.258;-2.932;2022-12-10T03:16:26;3.95;;;0.43;;
66957;SDS011;53892;43.258;-2.932;2022-12-10T03:18:58;1.38;;;0.40;;
66957;SDS011;53892;43.258;-2.932;2022-12-10T03:21:26;4.05;;;0.60;;
66957;SDS011;53892;43.258;-2.932;2022-12-10T03:23:52;1.85;;;0.35;;
66957;SDS011;53892;43.258;-2.932;2022-12-10T03:26:19;4.25;;;0.40;;
66957;SDS011;53892;43.258;-2.932;2022-12-10T03:28:47;2.55;;;0.50;;
66957;SDS011;53892;43.258;-2.932;2022-12-10T03:31:15;1.55;;;0.50;;
66957;SDS011;53892;43.258;-2.932;2022-12-10T03:33:41;4.00;;;0.50;;
66957;SDS011;53892;43.258;-2.932;2022-12-10T03:36:09;1.45;;;0.50;;
66957;SDS011;53892;43.258;-2.932;2022-12-10T03:38:35;3.03;;;0.60;;
66957;SDS011;53892;43.258;-2.932;2022-12-10T03:41:02;3.83;;;0.47;;
66957;SDS011;53892;43.258;-2.932;2022-12-10T03:43:29;2.90;;;0.40;;
66957;SDS011;53892;43.258;-2.932;2022-12-10T03:45:55;2.03;;;0.50;;
66957;SDS011;53892;43.258;-2.932;2022-12-10T03:48:21;5.10;;;0.82;;
66957;SDS011;53892;43.258;-2.932;2022-12-10T03:50:47;3.20;;;0.55;;
66957;SDS011;53892;43.258;-2.932;2022-12-10T03:53:13;5.03;;;0.80;;
66957;SDS011;53892;43.258;-2.932;2022-12-10T03:55:39;9.10;;;0.45;;
66957;SDS011;53892;43.258;-2.932;2022-12-10T03:58:06;4.97;;;0.60;;
66957;SDS011;53892;43.258;-2.932;2022-12-10T04:00:32;3.28;;;0.47;;
66957;SDS011;53892;43.258;-2.932;2022-12-10T04:02:58;7.20;;;0.65;;
66957;SDS011;53892;43.258;-2.932;2022-12-10T04:05:24;2.80;;;0.80;;
66957;SDS011;53892;43.258;-2.932;2022-12-10T04:07:50;3.30;;;0.40;;
66957;SDS011;53892;43.258;-2.932;2022-12-10T04:10:17;1.30;;;0.40;;
66957;SDS011;53892;43.258;-2.932;2022-12-10T04:12:43;5.68;;;0.60;;
66957;SDS011;53892;43.258;-2.932;2022-12-10T04:15:29;3.55;;;0.50;;
66957;SDS011;53892;43.258;-2.932;2022-12-10T04:18:13;8.27;;;1.05;;
66957;SDS011;53892;43.258;-2.932;2022-12-10T04:20:40;1.42;;;0.57;;
66957;SDS011;53892;43.258;-2.932;2022-12-10T04:23:24;3.50;;;0.70;;
66957;SDS011;53892;43.258;-2.932;2022-12-10T04:26:09;9.13;;;1.05;;
66957;SDS011;53892;43.258;-2.932;2022-12-10T04:28:54;2.30;;;0.40;;
66957;SDS011;53892;43.258;-2.932;2022-12-10T04:31:20;2.08;;;0.40;;
66957;SDS011;53892;43.258;-2.932;2022-12-10T04:33:46;1.55;;;0.40;;
66957;SDS011;53892;43.258;-2.932;2022-12-10T04:36:12;3.55;;;0.70;;
66957;SDS011;53892;43.258;-2.932;2022-12-10T04:38:38;3.78;;;0.52;;
66957;SDS011;53892;43.258;-2.932;2022-12-10T04:41:04;3.50;;;0.60;;
66957;SDS011;53892;43.258;-2.932;2022-12-10T04:43:40;1.75;;;0.45;;
66957;SDS011;53892;43.258;-2.932;2022-12-10T04:46:06;2.42;;;0.40;;
66957;SDS011;53892;43.258;-2.932;2022-12-10T04:48:32;3.95;;;0.80;;
66957;SDS011;53892;43.258;-2.932;2022-12-10T04:50:59;2.30;;;0.30;;
66957;SDS011;53892;43.258;-2.932;2022-12-10T04:53:25;2.33;;;0.43;;
66957;SDS011;53892;43.258;-2.932;2022-12-10T04:55:51;8.25;;;0.60;;
66957;SDS011;53892;43.258;-2.932;2022-12-10T04:58:17;2.25;;;0.73;;
66957;SDS011;53892;43.258;-2.932;2022-12-10T05:00:43;3.40;;;0.40;;
66957;SDS011;53892;43.258;-2.932;2022-12-10T05:03:09;1.98;;;0.40;;
66957;SDS011;53892;43.258;-2.932;2022-12-10T05:05:36;3.33;;;0.63;;
66957;SDS011;53892;43.258;-2.932;2022-12-10T05:08:02;6.20;;;0.68;;
66957;SDS011;53892;43.258;-2.932;2022-12-10T05:10:29;2.65;;;0.38;;
66957;SDS011;53892;43.258;-2.932;2022-12-10T05:12:55;1.45;;;0.38;;
66957;SDS011;53892;43.258;-2.932;2022-12-10T05:15:21;5.47;;;0.75;;
66957;SDS011;53892;43.258;-2.932;2022-12-10T05:17:48;3.67;;;0.93;;
66957;SDS011;53892;43.258;-2.932;2022-12-10T05:20:14;2.78;;;0.40;;
66957;SDS011;53892;43.258;-2.932;2022-12-10T05:22:40;4.28;;;0.70;;
66957;SDS011;53892;43.258;-2.932;2022-12-10T05:25:25;2.30;;;0.43;;
66957;SDS011;53892;43.258;-2.932;2022-12-10T05:27:51;1.63;;;0.40;;
66957;SDS011;53892;43.258;-2.932;2022-12-10T05:30:18;4.95;;;0.40;;
66957;SDS011;53892;43.258;-2.932;2022-12-10T05:32:44;5.97;;;0.40;;
66957;SDS011;53892;43.258;-2.932;2022-12-10T05:35:10;1.13;;;0.32;;
66957;SDS011;53892;43.258;-2.932;2022-12-10T05:37:36;3.85;;;0.50;;
66957;SDS011;53892;43.258;-2.932;2022-12-10T05:40:03;2.08;;;0.60;;
66957;SDS011;53892;43.258;-2.932;2022-12-10T05:42:29;2.17;;;0.57;;
66957;SDS011;53892;43.258;-2.932;2022-12-10T05:44:55;1.70;;;0.40;;
66957;SDS011;53892;43.258;-2.932;2022-12-10T05:47:21;2.08;;;0.50;;
66957;SDS011;53892;43.258;-2.932;2022-12-10T05:49:47;3.28;;;0.60;;
66957;SDS011;53892;43.258;-2.932;2022-12-10T05:52:13;1.80;;;0.60;;
66957;SDS011;53892;43.258;-2.932;2022-12-10T05:54:39;1.95;;;0.50;;
66957;SDS011;53892;43.258;-2.932;2022-12-10T05:57:06;2.88;;;0.40;;
66957;SDS011;53892;43.258;-2.932;2022-12-10T05:59:32;2.15;;;0.50;;
66957;SDS011;53892;43.258;-2.932;2022-12-10T06:01:58;3.28;;;0.50;;
66957;SDS011;53892;43.258;-2.932;2022-12-10T06:04:24;1.00;;;0.30;;
66957;SDS011;53892;43.258;-2.932;2022-12-10T06:06:50;5.53;;;0.50;;
66957;SDS011;53892;43.258;-2.932;2022-12-10T06:09:16;4.57;;;0.77;;
66957;SDS011;53892;43.258;-2.932;2022-12-10T06:11:42;3.72;;;0.50;;
66957;SDS011;53892;43.258;-2.932;2022-12-10T06:14:09;8.52;;;0.93;;
66957;SDS011;53892;43.258;-2.932;2022-12-10T06:16:36;3.67;;;0.77;;
66957;SDS011;53892;43.258;-2.932;2022-12-10T06:19:02;1.55;;;0.43;;
66957;SDS011;53892;43.258;-2.932;2022-12-10T06:21:28;2.95;;;0.80;;
66957;SDS011;53892;43.258;-2.932;2022-12-10T06:23:54;3.30;;;0.70;;
66957;SDS011;53892;43.258;-2.932;2022-12-10T06:26:22;5.35;;;0.68;;
66957;SDS011;53892;43.258;-2.932;2022-12-10T06:28:48;2.45;;;0.70;;
66957;SDS011;53892;43.258;-2.932;2022-12-10T06:31:15;5.15;;;0.82;;
66957;SDS011;53892;43.258;-2.932;2022-12-10T06:33:41;4.05;;;0.60;;
66957;SDS011;53892;43.258;-2.932;2022-12-10T06:36:08;23.05;;;1.80;;
66957;SDS011;53892;43.258;-2.932;2022-12-10T06:38:35;2.30;;;0.95;;
66957;SDS011;53892;43.258;-2.932;2022-12-10T06:41:05;7.18;;;0.73;;
66957;SDS011;53892;43.258;-2.932;2022-12-10T06:43:31;3.47;;;0.60;;
66957;SDS011;53892;43.258;-2.932;2022-12-10T06:45:57;7.32;;;1.05;;
66957;SDS011;53892;43.258;-2.932;2022-12-10T06:48:23;3.45;;;0.95;;
66957;SDS011;53892;43.258;-2.932;2022-12-10T06:50:49;5.65;;;0.93;;
66957;SDS011;53892;43.258;-2.932;2022-12-10T06:53:16;3.45;;;0.60;;
66957;SDS011;53892;43.258;-2.932;2022-12-10T06:55:42;3.70;;;0.70;;
66957;SDS011;53892;43.258;-2.932;2022-12-10T06:58:08;3.08;;;0.80;;
66957;SDS011;53892;43.258;-2.932;2022-12-10T07:00:34;4.40;;;0.70;;
66957;SDS011;53892;43.258;-2.932;2022-12-10T07:03:00;2.42;;;1.20;;
66957;SDS011;53892;43.258;-2.932;2022-12-10T07:05:26;3.33;;;0.77;;
66957;SDS011;53892;43.258;-2.932;2022-12-10T07:07:52;2.00;;;0.60;;
66957;SDS011;53892;43.258;-2.932;2022-12-10T07:10:19;3.92;;;0.73;;
66957;SDS011;53892;43.258;-2.932;2022-12-10T07:12:46;2.13;;;0.60;;
66957;SDS011;53892;43.258;-2.932;2022-12-10T07:15:12;5.85;;;0.82;;
66957;SDS011;53892;43.258;-2.932;2022-12-10T07:17:38;5.65;;;0.90;;
66957;SDS011;53892;43.258;-2.932;2022-12-10T07:20:04;5.65;;;0.77;;
66957;SDS011;53892;43.258;-2.932;2022-12-10T07:22:30;4.25;;;0.80;;
66957;SDS011;53892;43.258;-2.932;2022-12-10T07:24:57;4.05;;;0.65;;
66957;SDS011;53892;43.258;-2.932;2022-12-10T07:27:23;1.65;;;0.85;;
66957;SDS011;53892;43.258;-2.932;2022-12-10T07:29:49;3.78;;;0.73;;
66957;SDS011;53892;43.258;-2.932;2022-12-10T07:32:15;2.97;;;1.00;;
66957;SDS011;53892;43.258;-2.932;2022-12-10T07:34:41;3.67;;;0.65;;
66957;SDS011;53892;43.258;-2.932;2022-12-10T07:37:07;3.47;;;1.15;;
66957;SDS011;53892;43.258;-2.932;2022-12-10T07:39:34;5.45;;;0.95;;
66957;SDS011;53892;43.258;-2.932;2022-12-10T07:42:00;4.72;;;0.68;;
66957;SDS011;53892;43.258;-2.932;2022-12-10T07:44:26;5.72;;;1.40;;
66957;SDS011;53892;43.258;-2.932;2022-12-10T07:46:52;5.32;;;1.10;;
66957;SDS011;53892;43.258;-2.932;2022-12-10T07:49:19;3.53;;;0.80;;
66957;SDS011;53892;43.258;-2.932;2022-12-10T07:51:45;6.65;;;1.05;;
66957;SDS011;53892;43.258;-2.932;2022-12-10T07:54:12;11.00;;;0.77;;
66957;SDS011;53892;43.258;-2.932;2022-12-10T07:56:38;2.83;;;0.80;;
66957;SDS011;53892;43.258;-2.932;2022-12-10T07:59:05;3.33;;;0.90;;
66957;SDS011;53892;43.258;-2.932;2022-12-10T08:01:31;4.40;;;0.95;;
66957;SDS011;53892;43.258;-2.932;2022-12-10T08:03:57;4.57;;;1.13;;
66957;SDS011;53892;43.258;-2.932;2022-12-10T08:06:24;3.00;;;0.85;;
66957;SDS011;53892;43.258;-2.932;2022-12-10T08:08:50;7.47;;;1.00;;
66957;SDS011;53892;43.258;-2.932;2022-12-10T08:11:17;3.53;;;1.42;;
66957;SDS011;53892;43.258;-2.932;2022-12-10T08:13:44;6.88;;;1.48;;
66957;SDS011;53892;43.258;-2.932;2022-12-10T08:16:14;5.63;;;0.85;;
66957;SDS011;53892;43.258;-2.932;2022-12-10T08:18:41;4.13;;;1.30;;
66957;SDS011;53892;43.258;-2.932;2022-12-10T08:21:09;4.13;;;1.10;;
66957;SDS011;53892;43.258;-2.932;2022-12-10T08:23:35;7.10;;;1.30;;
66957;SDS011;53892;43.258;-2.932;2022-12-10T08:26:05;3.42;;;1.38;;
66957;SDS011;53892;43.258;-2.932;2022-12-10T08:28:32;3.83;;;1.27;;
66957;SDS011;53892;43.258;-2.932;2022-12-10T08:30:58;4.00;;;0.98;;
66957;SDS011;53892;43.258;-2.932;2022-12-10T08:33:24;5.10;;;1.02;;
66957;SDS011;53892;43.258;-2.932;2022-12-10T08:35:50;3.20;;;1.10;;
66957;SDS011;53892;43.258;-2.932;2022-12-10T08:38:16;3.92;;;2.00;;
66957;SDS011;53892;43.258;-2.932;2022-12-10T08:40:42;5.28;;;1.17;;
66957;SDS011;53892;43.258;-2.932;2022-12-10T08:43:09;4.22;;;1.25;;
66957;SDS011;53892;43.258;-2.932;2022-12-10T08:45:35;10.30;;;1.60;;
66957;SDS011;53892;43.258;-2.932;2022-12-10T08:48:01;7.97;;;1.50;;
66957;SDS011;53892;43.258;-2.932;2022-12-10T08:50:28;3.83;;;1.50;;
66957;SDS011;53892;43.258;-2.932;2022-12-10T08:52:54;2.22;;;0.95;;
66957;SDS011;53892;43.258;-2.932;2022-12-10T08:55:20;2.50;;;1.02;;
66957;SDS011;53892;43.258;-2.932;2022-12-10T08:57:46;4.75;;;1.10;;
66957;SDS011;53892;43.258;-2.932;2022-12-10T09:00:12;10.35;;;1.45;;
66957;SDS011;53892;43.258;-2.932;2022-12-10T09:02:39;6.85;;;1.60;;
66957;SDS011;53892;43.258;-2.932;2022-12-10T09:05:06;10.05;;;1.67;;
66957;SDS011;53892;43.258;-2.932;2022-12-10T09:07:32;7.50;;;1.80;;
66957;SDS011;53892;43.258;-2.932;2022-12-10T09:09:58;4.55;;;1.52;;
66957;SDS011;53892;43.258;-2.932;2022-12-10T09:12:25;10.95;;;1.85;;
66957;SDS011;53892;43.258;-2.932;2022-12-10T09:14:51;6.35;;;1.65;;
66957;SDS011;53892;43.258;-2.932;2022-12-10T09:17:17;5.68;;;1.73;;
66957;SDS011;53892;43.258;-2.932;2022-12-10T09:19:43;7.13;;;2.38;;
66957;SDS011;53892;43.258;-2.932;2022-12-10T09:22:09;12.23;;;2.67;;
66957;SDS011;53892;43.258;-2.932;2022-12-10T09:24:35;5.68;;;2.22;;
66957;SDS011;53892;43.258;-2.932;2022-12-10T09:27:02;9.02;;;2.22;;
66957;SDS011;53892;43.258;-2.932;2022-12-10T09:29:28;6.00;;;2.05;;
66957;SDS011;53892;43.258;-2.932;2022-12-10T09:31:54;7.60;;;2.05;;
66957;SDS011;53892;43.258;-2.932;2022-12-10T09:34:21;9.27;;;2.72;;
66957;SDS011;53892;43.258;-2.932;2022-12-10T09:36:47;5.20;;;3.03;;
66957;SDS011;53892;43.258;-2.932;2022-12-10T09:39:13;6.22;;;2.75;;
66957;SDS011;53892;43.258;-2.932;2022-12-10T09:46:57;4.82;;;2.17;;
66957;SDS011;53892;43.258;-2.932;2022-12-10T09:51:50;6.22;;;2.40;;
66957;SDS011;53892;43.258;-2.932;2022-12-10T09:56:42;5.47;;;2.33;;
66957;SDS011;53892;43.258;-2.932;2022-12-10T09:59:18;7.70;;;2.05;;
66957;SDS011;53892;43.258;-2.932;2022-12-10T10:01:45;5.93;;;1.90;;
66957;SDS011;53892;43.258;-2.932;2022-12-10T10:04:13;6.68;;;1.98;;
66957;SDS011;53892;43.258;-2.932;2022-12-10T10:06:39;6.03;;;1.33;;
66957;SDS011;53892;43.258;-2.932;2022-12-10T10:09:06;6.20;;;1.40;;
66957;SDS011;53892;43.258;-2.932;2022-12-10T10:11:33;6.25;;;1.67;;
66957;SDS011;53892;43.258;-2.932;2022-12-10T10:14:01;13.65;;;2.65;;
66957;SDS011;53892;43.258;-2.932;2022-12-10T10:19:14;6.32;;;2.05;;
66957;SDS011;53892;43.258;-2.932;2022-12-10T10:21:48;7.28;;;2.22;;
66957;SDS011;53892;43.258;-2.932;2022-12-10T10:24:15;6.00;;;2.20;;
66957;SDS011;53892;43.258;-2.932;2022-12-10T10:26:43;10.85;;;3.33;;
66957;SDS011;53892;43.258;-2.932;2022-12-10T10:29:11;9.73;;;2.40;;
66957;SDS011;53892;43.258;-2.932;2022-12-10T10:31:39;10.68;;;2.33;;
66957;SDS011;53892;43.258;-2.932;2022-12-10T10:34:13;5.57;;;2.58;;
66957;SDS011;53892;43.258;-2.932;2022-12-10T10:36:39;8.95;;;2.58;;
66957;SDS011;53892;43.258;-2.932;2022-12-10T10:41:36;7.40;;;2.35;;
66957;SDS011;53892;43.258;-2.932;2022-12-10T10:44:05;11.70;;;2.80;;
66957;SDS011;53892;43.258;-2.932;2022-12-10T10:46:38;6.88;;;1.63;;
66957;SDS011;53892;43.258;-2.932;2022-12-10T10:51:50;5.68;;;2.47;;
66957;SDS011;53892;43.258;-2.932;2022-12-10T10:54:33;7.53;;;2.45;;
66957;SDS011;53892;43.258;-2.932;2022-12-10T10:57:12;5.20;;;2.08;;
66957;SDS011;53892;43.258;-2.932;2022-12-10T10:59:40;8.95;;;2.72;;
66957;SDS011;53892;43.258;-2.932;2022-12-10T11:04:49;11.63;;;2.00;;
66957;SDS011;53892;43.258;-2.932;2022-12-10T11:07:20;10.18;;;2.03;;
66957;SDS011;53892;43.258;-2.932;2022-12-10T11:09:48;4.78;;;2.05;;
66957;SDS011;53892;43.258;-2.932;2022-12-10T11:14:49;4.78;;;1.90;;
66957;SDS011;53892;43.258;-2.932;2022-12-10T11:17:19;3.95;;;1.55;;
66957;SDS011;53892;43.258;-2.932;2022-12-10T11:22:32;11.25;;;1.60;;
66957;SDS011;53892;43.258;-2.932;2022-12-10T11:25:01;8.00;;;2.38;;
66957;SDS011;53892;43.258;-2.932;2022-12-10T11:27:49;6.22;;;1.33;;
66957;SDS011;53892;43.258;-2.932;2022-12-10T11:30:17;7.18;;;1.67;;
66957;SDS011;53892;43.258;-2.932;2022-12-10T11:35:43;5.55;;;1.83;;
66957;SDS011;53892;43.258;-2.932;2022-12-10T11:40:48;7.40;;;1.73;;
66957;SDS011;53892;43.258;-2.932;2022-12-10T11:56:22;7.10;;;1.80;;
66957;SDS011;53892;43.258;-2.932;2022-12-10T11:58:57;7.75;;;2.10;;
66957;SDS011;53892;43.258;-2.932;2022-12-10T12:09:16;3.90;;;1.15;;
66957;SDS011;53892;43.258;-2.932;2022-12-10T12:14:28;6.00;;;0.98;;
66957;SDS011;53892;43.258;-2.932;2022-12-10T12:17:02;3.38;;;0.82;;
66957;SDS011;53892;43.258;-2.932;2022-12-10T12:22:06;4.07;;;0.98;;
66957;SDS011;53892;43.258;-2.932;2022-12-10T12:24:37;3.80;;;0.80;;
66957;SDS011;53892;43.258;-2.932;2022-12-10T12:27:21;2.37;;;1.30;;
66957;SDS011;53892;43.258;-2.932;2022-12-10T12:30:32;3.63;;;1.35;;
66957;SDS011;53892;43.258;-2.932;2022-12-10T12:38:06;1.88;;;0.82;;
66957;SDS011;53892;43.258;-2.932;2022-12-10T12:40:43;3.35;;;1.33;;
66957;SDS011;53892;43.258;-2.932;2022-12-10T12:43:13;5.07;;;1.17;;
66957;SDS011;53892;43.258;-2.932;2022-12-10T12:45:45;6.75;;;1.77;;
66957;SDS011;53892;43.258;-2.932;2022-12-10T12:50:53;3.78;;;0.80;;
66957;SDS011;53892;43.258;-2.932;2022-12-10T12:53:21;3.72;;;1.25;;
66957;SDS011;53892;43.258;-2.932;2022-12-10T12:58:22;3.40;;;1.50;;
66957;SDS011;53892;43.258;-2.932;2022-12-10T13:00:51;13.48;;;1.20;;
66957;SDS011;53892;43.258;-2.932;2022-12-10T13:03:32;7.10;;;1.60;;
66957;SDS011;53892;43.258;-2.932;2022-12-10T13:11:39;3.05;;;1.35;;
66957;SDS011;53892;43.258;-2.932;2022-12-10T13:24:15;4.78;;;1.80;;
66957;SDS011;53892;43.258;-2.932;2022-12-10T13:29:28;4.68;;;2.28;;
66957;SDS011;53892;43.258;-2.932;2022-12-10T13:32:13;11.07;;;2.40;;
66957;SDS011;53892;43.258;-2.932;2022-12-10T13:34:40;8.50;;;2.20;;
66957;SDS011;53892;43.258;-2.932;2022-12-10T13:37:13;5.05;;;1.98;;
66957;SDS011;53892;43.258;-2.932;2022-12-10T13:42:27;5.15;;;1.92;;
66957;SDS011;53892;43.258;-2.932;2022-12-10T13:57:53;3.88;;;1.00;;
66957;SDS011;53892;43.258;-2.932;2022-12-10T14:00:23;3.65;;;1.25;;
66957;SDS011;53892;43.258;-2.932;2022-12-10T14:07:52;4.63;;;1.50;;
66957;SDS011;53892;43.258;-2.932;2022-12-10T14:10:19;3.92;;;1.33;;
66957;SDS011;53892;43.258;-2.932;2022-12-10T14:12:47;4.22;;;1.10;;
66957;SDS011;53892;43.258;-2.932;2022-12-10T14:15:18;3.15;;;1.45;;
66957;SDS011;53892;43.258;-2.932;2022-12-10T14:17:48;7.53;;;1.83;;
66957;SDS011;53892;43.258;-2.932;2022-12-10T14:20:17;3.17;;;1.00;;
66957;SDS011;53892;43.258;-2.932;2022-12-10T14:22:47;3.67;;;1.13;;
66957;SDS011;53892;43.258;-2.932;2022-12-10T14:25:15;3.03;;;1.33;;
66957;SDS011;53892;43.258;-2.932;2022-12-10T14:27:43;3.70;;;1.00;;
66957;SDS011;53892;43.258;-2.932;2022-12-10T14:32:41;3.80;;;1.45;;
66957;SDS011;53892;43.258;-2.932;2022-12-10T14:35:12;5.75;;;1.92;;
66957;SDS011;53892;43.258;-2.932;2022-12-10T14:37:40;7.00;;;1.20;;
66957;SDS011;53892;43.258;-2.932;2022-12-10T14:40:07;4.07;;;1.33;;
66957;SDS011;53892;43.258;-2.932;2022-12-10T14:42:34;5.15;;;1.17;;
66957;SDS011;53892;43.258;-2.932;2022-12-10T14:45:02;6.45;;;1.27;;
66957;SDS011;53892;43.258;-2.932;2022-12-10T14:47:32;4.05;;;1.10;;
66957;SDS011;53892;43.258;-2.932;2022-12-10T14:50:01;5.20;;;1.53;;
66957;SDS011;53892;43.258;-2.932;2022-12-10T14:52:32;6.72;;;1.45;;
66957;SDS011;53892;43.258;-2.932;2022-12-10T14:55:00;2.67;;;1.17;;
66957;SDS011;53892;43.258;-2.932;2022-12-10T14:57:28;2.72;;;0.90;;
66957;SDS011;53892;43.258;-2.932;2022-12-10T15:02:42;4.07;;;1.38;;
66957;SDS011;53892;43.258;-2.932;2022-12-10T15:05:13;1.95;;;1.00;;
66957;SDS011;53892;43.258;-2.932;2022-12-10T15:07:41;3.50;;;1.50;;
66957;SDS011;53892;43.258;-2.932;2022-12-10T15:10:12;6.70;;;1.48;;
66957;SDS011;53892;43.258;-2.932;2022-12-10T15:12:43;2.92;;;1.23;;
66957;SDS011;53892;43.258;-2.932;2022-12-10T15:15:14;3.10;;;1.30;;
66957;SDS011;53892;43.258;-2.932;2022-12-10T15:17:42;3.50;;;1.02;;
66957;SDS011;53892;43.258;-2.932;2022-12-10T15:20:10;2.53;;;0.98;;
66957;SDS011;53892;43.258;-2.932;2022-12-10T15:22:44;1.75;;;0.80;;
66957;SDS011;53892;43.258;-2.932;2022-12-10T15:25:20;5.05;;;0.70;;
66957;SDS011;53892;43.258;-2.932;2022-12-10T15:27:59;4.32;;;0.90;;
66957;SDS011;53892;43.258;-2.932;2022-12-10T15:30:33;3.92;;;1.20;;
66957;SDS011;53892;43.258;-2.932;2022-12-10T15:33:00;3.60;;;0.88;;
66957;SDS011;53892;43.258;-2.932;2022-12-10T15:35:26;1.60;;;0.90;;
66957;SDS011;53892;43.258;-2.932;2022-12-10T15:37:53;2.13;;;0.75;;
66957;SDS011;53892;43.258;-2.932;2022-12-10T15:40:28;4.25;;;1.08;;
66957;SDS011;53892;43.258;-2.932;2022-12-10T15:42:56;4.30;;;1.20;;
66957;SDS011;53892;43.258;-2.932;2022-12-10T15:45:26;2.38;;;0.88;;
66957;SDS011;53892;43.258;-2.932;2022-12-10T15:47:57;3.67;;;1.40;;
66957;SDS011;53892;43.258;-2.932;2022-12-10T15:50:24;3.08;;;1.13;;
66957;SDS011;53892;43.258;-2.932;2022-12-10T15:52:50;2.72;;;1.13;;
66957;SDS011;53892;43.258;-2.932;2022-12-10T15:55:17;4.07;;;1.40;;
66957;SDS011;53892;43.258;-2.932;2022-12-10T15:57:43;5.60;;;1.88;;
66957;SDS011;53892;43.258;-2.932;2022-12-10T16:00:15;2.67;;;1.42;;
66957;SDS011;53892;43.258;-2.932;2022-12-10T16:05:16;4.68;;;1.20;;
66957;SDS011;53892;43.258;-2.932;2022-12-10T16:07:44;6.03;;;1.50;;
66957;SDS011;53892;43.258;-2.932;2022-12-10T16:10:11;3.35;;;1.40;;
66957;SDS011;53892;43.258;-2.932;2022-12-10T16:12:38;3.17;;;1.27;;
66957;SDS011;53892;43.258;-2.932;2022-12-10T16:15:05;2.33;;;0.90;;
66957;SDS011;53892;43.258;-2.932;2022-12-10T16:17:32;3.97;;;1.10;;
66957;SDS011;53892;43.258;-2.932;2022-12-10T16:19:59;7.25;;;1.33;;
66957;SDS011;53892;43.258;-2.932;2022-12-10T16:22:25;3.58;;;0.90;;
66957;SDS011;53892;43.258;-2.932;2022-12-10T16:24:51;4.05;;;1.25;;
66957;SDS011;53892;43.258;-2.932;2022-12-10T16:27:18;8.45;;;1.10;;
66957;SDS011;53892;43.258;-2.932;2022-12-10T16:29:44;5.47;;;1.25;;
66957;SDS011;53892;43.258;-2.932;2022-12-10T16:32:11;3.10;;;1.10;;
66957;SDS011;53892;43.258;-2.932;2022-12-10T16:34:37;2.50;;;1.55;;
66957;SDS011;53892;43.258;-2.932;2022-12-10T16:37:04;3.13;;;1.30;;
66957;SDS011;53892;43.258;-2.932;2022-12-10T16:39:30;12.27;;;2.63;;
66957;SDS011;53892;43.258;-2.932;2022-12-10T16:41:56;6.85;;;1.77;;
66957;SDS011;53892;43.258;-2.932;2022-12-10T16:44:23;11.70;;;2.20;;
66957;SDS011;53892;43.258;-2.932;2022-12-10T16:46:49;8.02;;;2.42;;
66957;SDS011;53892;43.258;-2.932;2022-12-10T16:49:15;4.65;;;1.75;;